Time;durP1;ratioP1;P1;durP2;ratioP2;P2;SDS_P1;SDS_P2;PMS_P1;PMS_P2;Temp;Humidity;BMP_temperature;BMP_pressure;BME280_temperature;BME280_humidity;BME280_pressure;Samples;Min_cycle;Max_cycle;Signal;HPM_P1;HPM_P2
2021/12/04 00:00:44;;;;;;;15.80;11.80;;;;;;;;;;5081961;28;20169;-74
2021/12/04 00:03:09;;;;;;;17.87;13.63;;;;;;;;;;5065260;28;20592;-74
2021/12/04 00:05:35;;;;;;;18.10;13.17;;;;;;;;;;5061581;28;20196;-74
2021/12/04 00:08:00;;;;;;;17.07;13.10;;;;;;;;;;5074895;28;20212;-75
2021/12/04 00:10:30;;;;;;;16.03;12.83;;;;;;;;;;5068659;28;20173;-74
2021/12/04 00:12:55;;;;;;;16.00;12.33;;;;;;;;;;5055209;28;20549;-74
2021/12/04 00:15:21;;;;;;;16.80;13.03;;;;;;;;;;5070506;28;20193;-74
2021/12/04 00:17:46;;;;;;;16.30;12.87;;;;;;;;;;5054076;28;20177;-74
2021/12/04 00:20:11;;;;;;;16.07;12.97;;;;;;;;;;5078566;28;20176;-75
2021/12/04 00:22:37;;;;;;;18.13;12.77;;;;;;;;;;5074715;28;20206;-75
2021/12/04 00:25:06;;;;;;;15.17;12.03;;;;;;;;;;5077189;28;20211;-72
2021/12/04 00:27:31;;;;;;;17.63;13.70;;;;;;;;;;5073922;28;20233;-74
2021/12/04 00:29:58;;;;;;;17.00;12.20;;;;;;;;;;5075950;28;20631;-73
2021/12/04 00:35:00;;;;;;;18.83;13.63;;;;;;;;;;5075085;28;20288;-74
2021/12/04 00:37:46;;;;;;;18.47;13.50;;;;;;;;;;5082801;28;20185;-73
2021/12/04 00:51:07;;;;;;;17.40;12.87;;;;;;;;;;5079479;28;20226;-75
2021/12/04 00:53:32;;;;;;;18.63;14.07;;;;;;;;;;5074374;28;20184;-74
2021/12/04 00:55:57;;;;;;;20.53;15.27;;;;;;;;;;5064837;28;20617;-76
2021/12/04 00:58:22;;;;;;;22.07;16.07;;;;;;;;;;5066908;28;20181;-74
2021/12/04 01:00:48;;;;;;;21.80;14.30;;;;;;;;;;5073065;28;20205;-75
2021/12/04 01:03:13;;;;;;;21.80;15.13;;;;;;;;;;5074673;28;20196;-74
2021/12/04 01:05:39;;;;;;;23.90;16.33;;;;;;;;;;5071884;28;20199;-75
2021/12/04 01:08:05;;;;;;;25.07;15.87;;;;;;;;;;5083279;28;20249;-73
2021/12/04 01:10:30;;;;;;;27.97;16.73;;;;;;;;;;5081367;28;20263;-72
2021/12/04 01:13:00;;;;;;;32.27;19.10;;;;;;;;;;5085116;28;20196;-73
2021/12/04 01:15:25;;;;;;;26.63;17.80;;;;;;;;;;5088063;28;20215;-73
2021/12/04 01:17:50;;;;;;;29.80;17.93;;;;;;;;;;5086584;28;20593;-72
2021/12/04 01:20:16;;;;;;;29.27;19.37;;;;;;;;;;5077637;28;20177;-73
2021/12/04 01:22:41;;;;;;;29.57;18.90;;;;;;;;;;5085265;28;20686;-73
2021/12/04 01:25:06;;;;;;;38.13;22.17;;;;;;;;;;5082368;28;20244;-74
2021/12/04 01:27:31;;;;;;;39.90;21.23;;;;;;;;;;5078191;28;20172;-75
2021/12/04 01:29:57;;;;;;;30.90;20.13;;;;;;;;;;5086454;28;20169;-74
2021/12/04 01:32:22;;;;;;;36.57;20.67;;;;;;;;;;5083003;28;20673;-74
2021/12/04 01:34:47;;;;;;;40.07;22.37;;;;;;;;;;5079493;28;20199;-73
2021/12/04 01:37:12;;;;;;;43.30;22.33;;;;;;;;;;5067886;28;20545;-74
2021/12/04 01:39:37;;;;;;;37.97;22.17;;;;;;;;;;5077799;28;20183;-74
2021/12/04 01:42:03;;;;;;;39.50;22.53;;;;;;;;;;5082576;28;20204;-74
2021/12/04 01:44:28;;;;;;;45.63;23.03;;;;;;;;;;5082744;28;20181;-74
2021/12/04 01:46:57;;;;;;;40.57;23.30;;;;;;;;;;5083093;28;20184;-74
2021/12/04 01:49:23;;;;;;;42.80;24.23;;;;;;;;;;5084431;28;20180;-74
2021/12/04 01:51:48;;;;;;;40.57;23.63;;;;;;;;;;5075599;28;20173;-74
2021/12/04 01:54:13;;;;;;;51.90;24.50;;;;;;;;;;5073938;28;20642;-75
2021/12/04 01:56:38;;;;;;;47.10;25.17;;;;;;;;;;5080371;28;20239;-73
2021/12/04 01:59:04;;;;;;;44.33;24.87;;;;;;;;;;5059492;28;20187;-78
2021/12/04 02:01:31;;;;;;;56.47;24.83;;;;;;;;;;5070734;28;20231;-74
2021/12/04 02:03:56;;;;;;;44.13;23.97;;;;;;;;;;5076026;28;20613;-74
2021/12/04 02:06:21;;;;;;;44.83;23.67;;;;;;;;;;5075055;28;20185;-74
2021/12/04 02:08:47;;;;;;;45.30;24.37;;;;;;;;;;5071720;28;20604;-74
2021/12/04 02:11:12;;;;;;;45.47;25.40;;;;;;;;;;5076320;28;20263;-74
2021/12/04 02:13:37;;;;;;;44.43;22.40;;;;;;;;;;5060967;28;20215;-75
2021/12/04 02:16:12;;;;;;;46.67;23.93;;;;;;;;;;5079096;28;20284;-74
2021/12/04 02:18:38;;;;;;;46.77;24.10;;;;;;;;;;5071784;28;20192;-74
2021/12/04 02:21:03;;;;;;;51.70;25.27;;;;;;;;;;5076262;28;20200;-74
2021/12/04 02:23:28;;;;;;;47.27;24.47;;;;;;;;;;5072478;28;20188;-75
2021/12/04 02:25:53;;;;;;;50.60;24.07;;;;;;;;;;5072133;28;20257;-74
2021/12/04 02:28:18;;;;;;;48.57;25.17;;;;;;;;;;5059609;28;20186;-74
2021/12/04 02:30:45;;;;;;;46.97;23.87;;;;;;;;;;5075283;28;20638;-74
2021/12/04 02:33:14;;;;;;;51.97;24.70;;;;;;;;;;5071631;28;20576;-73
2021/12/04 02:35:40;;;;;;;48.63;23.77;;;;;;;;;;5072004;28;20207;-73
2021/12/04 02:38:05;;;;;;;42.17;23.17;;;;;;;;;;5050145;28;20665;-73
2021/12/04 02:40:31;;;;;;;53.13;23.90;;;;;;;;;;5074322;28;20255;-75
2021/12/04 02:42:56;;;;;;;52.47;25.77;;;;;;;;;;5075857;28;20196;-74
2021/12/04 02:45:21;;;;;;;49.07;25.37;;;;;;;;;;5071635;28;20199;-74
2021/12/04 02:47:46;;;;;;;49.03;24.43;;;;;;;;;;5067233;28;20177;-74
2021/12/04 02:50:12;;;;;;;53.63;23.80;;;;;;;;;;5071051;28;20259;-74
2021/12/04 02:52:38;;;;;;;54.53;25.07;;;;;;;;;;5069524;28;20203;-75
2021/12/04 02:55:03;;;;;;;45.27;24.20;;;;;;;;;;5070560;28;20250;-74
2021/12/04 02:57:29;;;;;;;53.07;25.20;;;;;;;;;;5069308;28;20791;-74
2021/12/04 02:59:55;;;;;;;53.07;24.37;;;;;;;;;;5070612;28;21071;-74
2021/12/04 03:02:21;;;;;;;61.90;24.07;;;;;;;;;;5050005;28;20698;-73
2021/12/04 03:04:57;;;;;;;52.00;25.63;;;;;;;;;;5069236;28;20200;-76
2021/12/04 03:07:23;;;;;;;56.43;26.20;;;;;;;;;;5051726;28;20169;-74
2021/12/04 03:09:48;;;;;;;48.00;23.00;;;;;;;;;;5070904;28;20263;-73
2021/12/04 03:12:14;;;;;;;55.03;23.20;;;;;;;;;;5071720;28;20203;-74
2021/12/04 03:14:40;;;;;;;54.57;23.80;;;;;;;;;;5076444;28;20639;-74
2021/12/04 03:17:06;;;;;;;52.27;23.13;;;;;;;;;;5054902;28;20218;-78
2021/12/04 03:19:31;;;;;;;65.63;25.87;;;;;;;;;;5070410;28;20180;-74
2021/12/04 03:21:57;;;;;;;60.90;24.00;;;;;;;;;;5071763;28;20209;-74
2021/12/04 03:24:23;;;;;;;51.00;22.50;;;;;;;;;;5068851;28;20226;-75
2021/12/04 03:26:50;;;;;;;50.27;23.47;;;;;;;;;;5076256;28;20180;-74
2021/12/04 03:29:19;;;;;;;43.93;23.27;;;;;;;;;;5069552;28;20172;-74
2021/12/04 03:42:36;;;;;;;55.83;24.17;;;;;;;;;;5069865;28;20216;-75
2021/12/04 03:45:03;;;;;;;52.63;25.13;;;;;;;;;;5069577;28;20197;-72
2021/12/04 03:47:30;;;;;;;42.90;21.83;;;;;;;;;;5069525;28;20203;-75
2021/12/04 03:49:55;;;;;;;58.47;24.53;;;;;;;;;;5068050;28;20259;-74
2021/12/04 03:52:20;;;;;;;53.47;23.00;;;;;;;;;;5070157;28;20234;-74
2021/12/04 03:54:46;;;;;;;47.73;22.27;;;;;;;;;;5049420;28;20207;-76
2021/12/04 03:57:12;;;;;;;60.20;22.07;;;;;;;;;;5068758;28;20168;-74
2021/12/04 03:59:39;;;;;;;76.63;25.53;;;;;;;;;;5069294;28;20185;-74
2021/12/04 04:02:05;;;;;;;52.23;22.40;;;;;;;;;;5069638;28;20674;-74
2021/12/04 04:04:30;;;;;;;53.43;23.90;;;;;;;;;;5068862;28;20748;-74
2021/12/04 04:06:58;;;;;;;46.87;21.40;;;;;;;;;;5054206;28;20169;-75
2021/12/04 04:09:23;;;;;;;52.57;22.50;;;;;;;;;;5068041;28;20256;-75
2021/12/04 04:11:48;;;;;;;58.83;23.63;;;;;;;;;;5045585;28;20264;-74
2021/12/04 04:14:14;;;;;;;59.73;25.17;;;;;;;;;;5069801;28;20532;-73
2021/12/04 04:16:40;;;;;;;59.63;22.40;;;;;;;;;;5073766;28;20180;-75
2021/12/04 04:19:05;;;;;;;70.83;24.03;;;;;;;;;;5055314;28;20181;-77
2021/12/04 04:21:31;;;;;;;60.23;24.97;;;;;;;;;;5056849;28;20615;-74
2021/12/04 04:23:56;;;;;;;50.30;22.43;;;;;;;;;;5070464;28;20551;-74
2021/12/04 04:26:22;;;;;;;72.20;24.17;;;;;;;;;;5068768;28;20908;-75
2021/12/04 04:28:47;;;;;;;53.53;22.00;;;;;;;;;;5070028;28;20181;-73
2021/12/04 04:31:13;;;;;;;49.47;22.93;;;;;;;;;;5069421;28;20195;-75
2021/12/04 04:33:42;;;;;;;62.00;23.70;;;;;;;;;;5063505;28;20215;-73
2021/12/04 04:36:41;;;;;;;59.57;23.67;;;;;;;;;;5068738;28;20200;-73
2021/12/04 04:40:00;;;;;;;82.23;25.57;;;;;;;;;;5064730;28;20177;-73
2021/12/04 05:14:33;;;;;;;65.20;25.23;;;;;;;;;;5073993;28;20208;-76
2021/12/04 05:17:04;;;;;;;71.77;24.70;;;;;;;;;;5083302;28;20259;-73
2021/12/04 05:19:41;;;;;;;66.67;25.17;;;;;;;;;;5056117;28;20185;-75
2021/12/04 05:22:07;;;;;;;90.13;25.93;;;;;;;;;;5076167;28;20681;-73
2021/12/04 05:24:32;;;;;;;55.30;23.73;;;;;;;;;;5038331;28;20218;-75
2021/12/04 05:26:58;;;;;;;64.83;24.10;;;;;;;;;;5057316;28;20172;-74
2021/12/04 05:29:23;;;;;;;75.37;25.73;;;;;;;;;;5083783;28;20661;-73
2021/12/04 05:31:48;;;;;;;83.60;26.87;;;;;;;;;;5075474;28;20227;-73
2021/12/04 05:34:13;;;;;;;67.80;24.20;;;;;;;;;;5079515;28;20205;-74
2021/12/04 05:36:39;;;;;;;55.93;24.70;;;;;;;;;;5072228;28;20185;-75
2021/12/04 05:39:04;;;;;;;61.07;25.33;;;;;;;;;;5071700;28;20189;-74
2021/12/04 05:41:29;;;;;;;72.20;24.37;;;;;;;;;;5072359;28;20295;-74
2021/12/04 05:43:55;;;;;;;67.20;25.87;;;;;;;;;;5071294;28;20176;-73
2021/12/04 05:46:25;;;;;;;54.33;24.50;;;;;;;;;;5061121;28;20197;-74
2021/12/04 05:48:58;;;;;;;85.53;25.20;;;;;;;;;;5073191;28;20189;-73
2021/12/04 05:56:19;;;;;;;62.93;25.73;;;;;;;;;;5073347;28;20676;-73
2021/12/04 05:58:44;;;;;;;96.67;27.63;;;;;;;;;;5074532;28;20208;-75
2021/12/04 06:01:10;;;;;;;72.30;26.57;;;;;;;;;;5052713;28;20561;-73
2021/12/04 06:03:35;;;;;;;112.60;28.20;;;;;;;;;;5070906;28;20222;-74
2021/12/04 06:06:01;;;;;;;67.50;23.60;;;;;;;;;;5072672;28;20322;-75
2021/12/04 06:08:26;;;;;;;71.23;24.23;;;;;;;;;;5079388;28;20176;-77
2021/12/04 06:10:52;;;;;;;76.87;25.90;;;;;;;;;;5074135;28;20559;-75
2021/12/04 06:13:17;;;;;;;97.17;26.60;;;;;;;;;;5071570;28;20169;-73
2021/12/04 06:15:42;;;;;;;117.67;28.73;;;;;;;;;;5074431;28;21339;-74
2021/12/04 06:18:08;;;;;;;77.37;26.37;;;;;;;;;;5070891;28;20219;-74
2021/12/04 06:23:18;;;;;;;95.93;28.57;;;;;;;;;;5071747;28;20188;-74
2021/12/04 06:25:43;;;;;;;77.17;25.97;;;;;;;;;;5071259;28;20205;-75
2021/12/04 06:28:08;;;;;;;79.20;26.87;;;;;;;;;;5065195;28;20184;-76
2021/12/04 06:30:38;;;;;;;60.60;26.80;;;;;;;;;;5072284;28;20196;-75
2021/12/04 06:33:04;;;;;;;73.20;25.73;;;;;;;;;;5071304;28;20597;-75
2021/12/04 06:35:31;;;;;;;83.23;27.87;;;;;;;;;;5069627;28;20204;-76
2021/12/04 06:37:56;;;;;;;63.40;25.43;;;;;;;;;;5064233;28;20177;-73
2021/12/04 06:40:26;;;;;;;78.60;28.17;;;;;;;;;;5067614;28;20235;-73
2021/12/04 06:42:51;;;;;;;81.50;25.70;;;;;;;;;;5067592;28;20604;-74
2021/12/04 06:45:16;;;;;;;64.77;24.53;;;;;;;;;;5070624;28;20192;-74
2021/12/04 06:47:49;;;;;;;81.73;25.73;;;;;;;;;;5071737;28;20169;-75
2021/12/04 06:50:30;;;;;;;89.10;27.17;;;;;;;;;;5053573;28;20196;-74
2021/12/04 06:52:59;;;;;;;78.80;26.63;;;;;;;;;;5072797;28;20181;-74
2021/12/04 06:55:30;;;;;;;69.33;26.20;;;;;;;;;;5071538;28;20816;-74
2021/12/04 06:57:55;;;;;;;78.07;27.03;;;;;;;;;;5070736;28;20177;-74
2021/12/04 07:00:22;;;;;;;62.93;26.23;;;;;;;;;;5067796;28;20182;-74
2021/12/04 07:02:47;;;;;;;101.77;30.17;;;;;;;;;;5069075;28;20210;-74
2021/12/04 07:05:13;;;;;;;79.17;27.53;;;;;;;;;;5068500;28;20201;-74
2021/12/04 07:07:38;;;;;;;75.77;28.10;;;;;;;;;;5062791;28;20203;-73
2021/12/04 07:10:03;;;;;;;76.20;27.97;;;;;;;;;;5059616;28;20202;-75
2021/12/04 07:12:28;;;;;;;76.43;28.33;;;;;;;;;;5073367;28;20549;-76
2021/12/04 07:14:54;;;;;;;91.83;27.43;;;;;;;;;;5068205;28;20200;-75
2021/12/04 07:17:19;;;;;;;59.53;27.33;;;;;;;;;;5070632;28;20185;-74
2021/12/04 07:19:44;;;;;;;50.30;24.40;;;;;;;;;;5073934;28;20206;-75
2021/12/04 07:22:11;;;;;;;76.00;24.77;;;;;;;;;;5073351;28;20205;-74
2021/12/04 07:24:36;;;;;;;73.33;25.83;;;;;;;;;;5064820;28;20493;-75
2021/12/04 07:27:01;;;;;;;105.17;26.70;;;;;;;;;;5067128;28;20252;-73
2021/12/04 07:29:26;;;;;;;81.77;25.20;;;;;;;;;;5056853;28;20175;-77
2021/12/04 07:31:52;;;;;;;71.40;26.17;;;;;;;;;;5054495;28;20216;-74
2021/12/04 07:34:17;;;;;;;59.13;24.13;;;;;;;;;;5066532;28;20226;-74
2021/12/04 07:36:42;;;;;;;52.07;24.13;;;;;;;;;;5053703;28;20558;-75
2021/12/04 07:39:07;;;;;;;61.97;23.73;;;;;;;;;;5068391;28;20654;-75
2021/12/04 07:41:37;;;;;;;108.87;25.60;;;;;;;;;;5066419;28;20201;-75
2021/12/04 07:44:03;;;;;;;94.77;25.60;;;;;;;;;;5069557;28;20181;-76
2021/12/04 07:46:28;;;;;;;74.97;23.37;;;;;;;;;;5051614;28;20201;-75
2021/12/04 07:48:53;;;;;;;78.60;25.43;;;;;;;;;;5070254;28;20177;-75
2021/12/04 07:51:19;;;;;;;65.43;21.70;;;;;;;;;;5053292;28;20228;-74
2021/12/04 07:53:46;;;;;;;53.03;21.83;;;;;;;;;;5071136;28;20646;-75
2021/12/04 07:56:12;;;;;;;53.03;22.23;;;;;;;;;;5066668;28;20221;-73
2021/12/04 07:58:38;;;;;;;68.80;23.40;;;;;;;;;;5051794;28;20207;-76
2021/12/04 08:01:04;;;;;;;69.57;23.87;;;;;;;;;;5050912;28;20216;-73
2021/12/04 08:03:29;;;;;;;99.27;24.33;;;;;;;;;;5051123;28;20643;-74
2021/12/04 08:05:54;;;;;;;73.10;23.37;;;;;;;;;;5069017;28;20573;-76
2021/12/04 08:08:19;;;;;;;62.30;23.67;;;;;;;;;;5056442;28;20184;-75
2021/12/04 08:10:44;;;;;;;53.90;23.57;;;;;;;;;;5070143;28;20189;-74
2021/12/04 08:13:09;;;;;;;59.83;22.40;;;;;;;;;;5075777;28;20230;-75
2021/12/04 08:15:38;;;;;;;62.33;24.10;;;;;;;;;;5073023;28;20246;-74
2021/12/04 08:18:04;;;;;;;85.40;24.17;;;;;;;;;;5065967;28;20177;-74
2021/12/04 08:20:30;;;;;;;52.07;23.40;;;;;;;;;;5058144;28;20172;-73
2021/12/04 08:22:55;;;;;;;59.87;22.73;;;;;;;;;;5071175;28;20283;-75
2021/12/04 08:25:20;;;;;;;47.70;21.37;;;;;;;;;;5064824;28;20204;-74
2021/12/04 08:27:46;;;;;;;61.90;23.33;;;;;;;;;;5070539;28;20246;-74
2021/12/04 08:30:16;;;;;;;97.63;24.30;;;;;;;;;;5069344;28;20180;-74
2021/12/04 08:32:41;;;;;;;55.07;22.30;;;;;;;;;;5050679;28;20179;-76
2021/12/04 08:35:07;;;;;;;57.47;21.63;;;;;;;;;;5077699;28;20204;-75
2021/12/04 08:37:33;;;;;;;72.97;23.53;;;;;;;;;;5068402;28;20189;-75
2021/12/04 08:39:58;;;;;;;69.97;22.10;;;;;;;;;;5065605;28;20252;-74
2021/12/04 08:42:24;;;;;;;53.13;22.10;;;;;;;;;;5068544;28;20382;-73
2021/12/04 08:44:49;;;;;;;48.73;23.80;;;;;;;;;;5071492;28;20829;-74
2021/12/04 08:47:15;;;;;;;61.43;24.93;;;;;;;;;;5076919;28;20175;-75
2021/12/04 08:49:40;;;;;;;50.50;24.20;;;;;;;;;;5079173;28;20195;-73
2021/12/04 08:52:05;;;;;;;62.97;26.80;;;;;;;;;;5083726;28;20172;-73
2021/12/04 08:54:31;;;;;;;59.53;26.00;;;;;;;;;;5079559;28;20282;-74
2021/12/04 08:56:56;;;;;;;61.03;26.47;;;;;;;;;;5066424;28;20580;-73
2021/12/04 08:59:22;;;;;;;59.43;26.10;;;;;;;;;;5053992;28;20647;-73
2021/12/04 09:01:47;;;;;;;67.23;28.07;;;;;;;;;;5068600;28;21459;-74
2021/12/04 09:04:15;;;;;;;55.40;22.90;;;;;;;;;;5059455;28;20185;-73
2021/12/04 09:06:41;;;;;;;60.67;25.27;;;;;;;;;;5073702;28;20185;-73
2021/12/04 09:09:07;;;;;;;57.80;25.97;;;;;;;;;;5080624;28;20260;-76
2021/12/04 09:11:35;;;;;;;56.43;27.93;;;;;;;;;;5078626;28;20181;-73
2021/12/04 09:14:00;;;;;;;51.97;23.77;;;;;;;;;;5077251;28;20181;-73
2021/12/04 09:16:26;;;;;;;48.53;22.10;;;;;;;;;;5083002;28;20208;-73
2021/12/04 09:18:51;;;;;;;56.17;26.70;;;;;;;;;;5073853;28;20181;-73
2021/12/04 09:21:17;;;;;;;54.47;24.63;;;;;;;;;;5056552;28;20201;-74
2021/12/04 09:23:49;;;;;;;53.53;22.20;;;;;;;;;;5053318;28;20634;-73
2021/12/04 09:26:28;;;;;;;42.77;20.50;;;;;;;;;;5076349;28;20213;-73
2021/12/04 09:29:09;;;;;;;40.43;19.17;;;;;;;;;;5067609;28;20267;-76
2021/12/04 09:31:57;;;;;;;44.93;19.13;;;;;;;;;;5071693;28;20630;-73
2021/12/04 09:34:55;;;;;;;37.77;19.93;;;;;;;;;;5057852;28;20666;-77
2021/12/04 10:02:25;;;;;;;41.77;18.17;;;;;;;;;;5068579;28;20207;-73
2021/12/04 10:34:30;;;;;;;34.57;17.70;;;;;;;;;;5064925;28;20199;-74
2021/12/04 10:37:08;;;;;;;38.73;17.93;;;;;;;;;;5068204;28;20649;-74
2021/12/04 10:39:34;;;;;;;39.20;17.13;;;;;;;;;;5067134;28;20624;-74
2021/12/04 10:42:02;;;;;;;38.50;18.23;;;;;;;;;;5072024;28;20211;-74
2021/12/04 10:44:27;;;;;;;35.90;18.97;;;;;;;;;;5072639;28;20638;-74
2021/12/04 10:47:01;;;;;;;40.40;20.10;;;;;;;;;;5069693;28;20177;-75
2021/12/04 10:49:38;;;;;;;43.53;19.93;;;;;;;;;;5058159;28;20168;-75
2021/12/04 10:52:05;;;;;;;43.47;20.77;;;;;;;;;;5062646;28;20253;-74
2021/12/04 10:54:38;;;;;;;47.00;23.33;;;;;;;;;;5066590;28;22501;-75
2021/12/04 10:57:37;;;;;;;48.93;22.30;;;;;;;;;;5067240;28;20180;-74
2021/12/04 11:00:19;;;;;;;47.30;23.47;;;;;;;;;;5072161;28;20209;-74
2021/12/04 11:02:56;;;;;;;48.40;23.70;;;;;;;;;;5070351;28;20220;-74
2021/12/04 11:19:40;;;;;;;45.50;22.87;;;;;;;;;;5067992;28;20188;-74
2021/12/04 11:22:20;;;;;;;43.00;22.17;;;;;;;;;;5064863;28;20769;-75
2021/12/04 11:25:13;;;;;;;45.57;22.67;;;;;;;;;;5061905;28;20228;-75
2021/12/04 11:41:34;;;;;;;48.77;22.47;;;;;;;;;;5055819;28;20272;-74
2021/12/04 11:44:10;;;;;;;50.50;22.03;;;;;;;;;;5058195;28;20205;-74
2021/12/04 11:46:44;;;;;;;47.33;24.10;;;;;;;;;;5074182;28;20204;-74
2021/12/04 11:49:20;;;;;;;43.10;21.83;;;;;;;;;;5069090;28;20175;-74
2021/12/04 11:51:46;;;;;;;38.83;19.93;;;;;;;;;;5068938;28;20203;-75
2021/12/04 11:54:11;;;;;;;39.53;19.37;;;;;;;;;;5053913;28;20630;-75
2021/12/04 11:56:37;;;;;;;42.60;19.87;;;;;;;;;;5048142;28;20306;-73
2021/12/04 11:59:02;;;;;;;39.23;20.93;;;;;;;;;;5077081;28;20259;-74
2021/12/04 12:01:32;;;;;;;39.90;21.07;;;;;;;;;;5068159;28;20613;-74
2021/12/04 12:04:00;;;;;;;38.60;19.03;;;;;;;;;;5070275;28;20179;-76
2021/12/04 12:06:33;;;;;;;39.80;19.57;;;;;;;;;;5068833;28;20211;-74
2021/12/04 12:09:10;;;;;;;33.03;15.97;;;;;;;;;;5066661;28;20169;-75
2021/12/04 12:11:35;;;;;;;35.47;17.87;;;;;;;;;;5065593;28;20184;-75
2021/12/04 12:14:05;;;;;;;30.73;16.43;;;;;;;;;;5067725;28;20188;-73
2021/12/04 12:16:36;;;;;;;31.97;15.93;;;;;;;;;;5071812;28;20211;-75
2021/12/04 12:19:09;;;;;;;30.70;16.30;;;;;;;;;;5050518;28;20262;-74
2021/12/04 12:21:51;;;;;;;32.30;16.67;;;;;;;;;;5066603;28;20207;-74
2021/12/04 12:24:34;;;;;;;28.77;15.73;;;;;;;;;;5073813;28;20177;-74
2021/12/04 12:32:21;;;;;;;29.63;15.27;;;;;;;;;;5066692;28;20307;-74
2021/12/04 12:37:20;;;;;;;30.20;16.77;;;;;;;;;;5067585;28;20662;-74
2021/12/04 12:39:52;;;;;;;29.50;15.20;;;;;;;;;;5070779;28;20237;-74
2021/12/04 12:42:28;;;;;;;33.47;16.07;;;;;;;;;;5072870;28;20226;-75
2021/12/04 12:44:54;;;;;;;31.00;16.43;;;;;;;;;;5070741;28;20200;-74
2021/12/04 12:47:21;;;;;;;31.07;16.37;;;;;;;;;;5070996;28;20183;-75
2021/12/04 12:49:48;;;;;;;32.10;17.33;;;;;;;;;;5069528;28;20181;-74
2021/12/04 12:52:13;;;;;;;30.50;15.57;;;;;;;;;;5067503;28;20177;-75
2021/12/04 12:54:40;;;;;;;24.30;15.10;;;;;;;;;;5070072;28;20205;-75
2021/12/04 12:57:08;;;;;;;27.63;15.40;;;;;;;;;;5053815;28;20256;-74
2021/12/04 12:59:44;;;;;;;24.33;13.77;;;;;;;;;;5052450;28;20181;-73
2021/12/04 13:13:32;;;;;;;20.77;12.73;;;;;;;;;;5075651;28;20224;-75
2021/12/04 13:16:05;;;;;;;23.37;13.73;;;;;;;;;;5061207;28;20208;-75
2021/12/04 13:18:32;;;;;;;23.27;13.93;;;;;;;;;;5057634;28;20205;-75
2021/12/04 13:21:02;;;;;;;24.13;14.00;;;;;;;;;;5068734;28;20173;-77
2021/12/04 13:23:27;;;;;;;24.67;13.43;;;;;;;;;;5057210;28;20176;-76
2021/12/04 13:25:57;;;;;;;24.80;14.13;;;;;;;;;;5070713;28;20308;-75
2021/12/04 13:28:25;;;;;;;27.27;14.90;;;;;;;;;;5072349;28;20172;-76
2021/12/04 13:30:51;;;;;;;22.80;13.67;;;;;;;;;;5084655;28;20217;-75
2021/12/04 13:33:16;;;;;;;27.07;14.57;;;;;;;;;;5071214;28;20247;-76
2021/12/04 13:35:47;;;;;;;24.57;14.73;;;;;;;;;;5072724;28;20669;-76
2021/12/04 13:38:14;;;;;;;29.73;15.80;;;;;;;;;;5069996;28;20173;-76
2021/12/04 13:40:40;;;;;;;26.80;14.20;;;;;;;;;;5071379;28;20568;-76
2021/12/04 13:43:09;;;;;;;25.40;14.50;;;;;;;;;;5060239;28;20196;-75
2021/12/04 13:45:35;;;;;;;32.77;15.33;;;;;;;;;;5057323;28;20262;-77
2021/12/04 13:48:00;;;;;;;28.63;14.00;;;;;;;;;;5060651;28;20615;-75
2021/12/04 13:52:56;;;;;;;27.83;14.57;;;;;;;;;;5077789;28;20179;-76
2021/12/04 13:55:21;;;;;;;26.00;15.50;;;;;;;;;;5075419;28;20588;-73
2021/12/04 13:57:46;;;;;;;25.27;14.97;;;;;;;;;;5071858;28;20184;-76
2021/12/04 14:00:14;;;;;;;24.80;15.20;;;;;;;;;;5072396;28;20269;-76
2021/12/04 14:02:39;;;;;;;28.33;15.30;;;;;;;;;;5070411;28;20208;-75
2021/12/04 14:05:09;;;;;;;27.97;14.93;;;;;;;;;;5072993;28;20194;-75
2021/12/04 14:07:35;;;;;;;25.53;14.60;;;;;;;;;;5063716;28;20192;-75
2021/12/04 14:10:14;;;;;;;29.93;15.93;;;;;;;;;;5073055;28;20172;-73
2021/12/04 14:12:39;;;;;;;24.37;14.83;;;;;;;;;;5049812;28;20192;-76
2021/12/04 14:15:11;;;;;;;25.87;14.63;;;;;;;;;;5075646;28;20196;-73
2021/12/04 14:17:37;;;;;;;27.37;16.17;;;;;;;;;;5071998;28;20317;-74
2021/12/04 14:20:03;;;;;;;25.07;15.10;;;;;;;;;;5069846;28;20176;-73
2021/12/04 14:22:28;;;;;;;25.33;14.30;;;;;;;;;;5077329;28;20207;-73
2021/12/04 14:24:57;;;;;;;24.33;13.73;;;;;;;;;;5069788;28;20227;-75
2021/12/04 14:27:27;;;;;;;21.07;12.73;;;;;;;;;;5071111;28;20173;-75
2021/12/04 14:29:54;;;;;;;24.50;11.73;;;;;;;;;;5072681;28;20549;-73
2021/12/04 14:32:27;;;;;;;21.60;10.50;;;;;;;;;;5073155;28;20180;-73
2021/12/04 14:34:59;;;;;;;15.87;9.87;;;;;;;;;;5077002;28;20197;-76
2021/12/04 14:37:25;;;;;;;16.23;8.53;;;;;;;;;;5053413;28;20238;-73
2021/12/04 14:39:51;;;;;;;14.63;8.60;;;;;;;;;;5070924;28;20193;-73
2021/12/04 14:42:18;;;;;;;11.37;6.70;;;;;;;;;;5073953;28;20601;-74
2021/12/04 14:44:49;;;;;;;13.93;7.53;;;;;;;;;;5070435;28;20693;-73
2021/12/04 14:47:15;;;;;;;10.80;6.83;;;;;;;;;;5073445;28;20519;-73
2021/12/04 14:49:42;;;;;;;10.43;5.70;;;;;;;;;;5065297;28;20231;-73
2021/12/04 14:52:15;;;;;;;14.30;6.63;;;;;;;;;;5061423;28;20673;-74
2021/12/04 14:54:42;;;;;;;9.53;6.40;;;;;;;;;;5067933;28;20216;-74
2021/12/04 14:57:18;;;;;;;10.17;6.70;;;;;;;;;;5074820;28;20181;-74
2021/12/04 14:59:44;;;;;;;13.10;6.23;;;;;;;;;;5056825;28;20176;-74
2021/12/04 15:02:13;;;;;;;12.07;6.77;;;;;;;;;;5051059;28;20200;-74
2021/12/04 15:04:39;;;;;;;14.00;7.43;;;;;;;;;;5073978;28;20200;-74
2021/12/04 15:07:05;;;;;;;14.03;6.93;;;;;;;;;;5068360;28;20192;-74
2021/12/04 15:09:30;;;;;;;13.30;6.77;;;;;;;;;;5070640;28;20173;-73
2021/12/04 15:11:58;;;;;;;12.23;6.30;;;;;;;;;;5079251;28;20176;-73
2021/12/04 15:14:33;;;;;;;11.20;6.07;;;;;;;;;;5070788;28;20173;-73
2021/12/04 15:17:05;;;;;;;10.10;5.33;;;;;;;;;;5053196;28;20604;-73
2021/12/04 15:22:07;;;;;;;12.40;4.60;;;;;;;;;;5072070;28;20270;-73
2021/12/04 15:24:35;;;;;;;8.63;4.90;;;;;;;;;;5064636;28;20300;-73
2021/12/04 15:27:02;;;;;;;12.00;5.60;;;;;;;;;;5066547;28;20177;-73
2021/12/04 15:29:29;;;;;;;9.20;5.00;;;;;;;;;;5066507;28;20196;-76
2021/12/04 15:31:56;;;;;;;9.20;4.63;;;;;;;;;;5071691;28;20672;-73
2021/12/04 15:34:30;;;;;;;6.77;3.83;;;;;;;;;;5067868;28;20223;-74
2021/12/04 15:37:01;;;;;;;8.63;4.20;;;;;;;;;;5076964;28;20176;-73
2021/12/04 15:39:35;;;;;;;6.53;3.90;;;;;;;;;;5054520;28;20185;-73
2021/12/04 15:42:41;;;;;;;6.30;2.97;;;;;;;;;;5060883;28;20200;-73
2021/12/04 15:52:56;;;;;;;5.90;3.30;;;;;;;;;;5052093;28;20196;-74
2021/12/04 15:55:27;;;;;;;6.50;3.43;;;;;;;;;;5069827;28;20232;-73
2021/12/04 15:57:56;;;;;;;5.03;3.00;;;;;;;;;;5069701;28;20185;-74
2021/12/04 16:00:24;;;;;;;4.33;2.60;;;;;;;;;;5058253;28;20184;-74
2021/12/04 16:02:54;;;;;;;8.37;2.90;;;;;;;;;;5054906;28;20295;-73
2021/12/04 16:05:21;;;;;;;3.50;2.47;;;;;;;;;;5069683;28;20204;-74
2021/12/04 16:07:59;;;;;;;5.73;2.07;;;;;;;;;;5068709;28;20604;-74
2021/12/04 16:10:24;;;;;;;3.33;2.00;;;;;;;;;;5074367;28;20592;-74
2021/12/04 16:12:54;;;;;;;4.37;1.90;;;;;;;;;;5075110;28;20259;-73
2021/12/04 16:15:21;;;;;;;5.90;1.80;;;;;;;;;;5068476;28;20201;-74
2021/12/04 16:17:46;;;;;;;4.13;2.00;;;;;;;;;;5053870;28;20767;-73
2021/12/04 16:20:13;;;;;;;6.20;2.70;;;;;;;;;;5070791;28;20196;-73
2021/12/04 16:22:40;;;;;;;4.73;3.07;;;;;;;;;;5068107;28;20213;-74
2021/12/04 16:25:11;;;;;;;5.63;3.50;;;;;;;;;;5069334;28;20220;-73
2021/12/04 16:27:49;;;;;;;9.27;4.83;;;;;;;;;;5069279;28;20181;-73
2021/12/04 16:37:58;;;;;;;8.37;3.53;;;;;;;;;;5069777;28;20191;-74
2021/12/04 16:40:26;;;;;;;9.83;3.87;;;;;;;;;;5055352;28;20188;-73
2021/12/04 16:43:00;;;;;;;7.37;3.63;;;;;;;;;;5068861;28;20282;-73
2021/12/04 16:45:26;;;;;;;12.93;4.03;;;;;;;;;;5069734;28;20283;-76
2021/12/04 16:47:54;;;;;;;8.37;3.17;;;;;;;;;;5071185;28;20185;-74
2021/12/04 16:50:24;;;;;;;9.63;3.23;;;;;;;;;;5070310;28;20252;-74
2021/12/04 16:56:06;;;;;;;10.10;2.70;;;;;;;;;;5062870;28;20220;-74
2021/12/04 16:58:32;;;;;;;9.67;2.50;;;;;;;;;;5076142;28;20212;-74
2021/12/04 17:00:57;;;;;;;5.47;2.57;;;;;;;;;;5075818;28;20219;-74
2021/12/04 17:03:22;;;;;;;13.07;3.33;;;;;;;;;;5069663;28;20670;-76
2021/12/04 17:05:51;;;;;;;11.87;2.63;;;;;;;;;;5047182;28;20346;-74
2021/12/04 17:08:16;;;;;;;8.60;4.43;;;;;;;;;;5068615;28;20193;-76
2021/12/04 17:10:41;;;;;;;9.13;3.03;;;;;;;;;;5058352;28;20238;-74
2021/12/04 17:13:07;;;;;;;11.93;2.60;;;;;;;;;;5068077;28;20181;-75
2021/12/04 17:15:33;;;;;;;13.43;3.30;;;;;;;;;;5069666;28;20201;-74
2021/12/04 17:18:04;;;;;;;6.37;2.50;;;;;;;;;;5073231;28;20671;-75
2021/12/04 17:20:30;;;;;;;11.13;3.53;;;;;;;;;;5077312;28;20658;-74
2021/12/04 17:22:56;;;;;;;8.97;3.60;;;;;;;;;;5068067;28;20192;-75
2021/12/04 17:25:22;;;;;;;6.33;2.20;;;;;;;;;;5071481;28;20208;-74
2021/12/04 17:27:47;;;;;;;5.67;2.13;;;;;;;;;;5071907;28;20193;-75
2021/12/04 17:30:14;;;;;;;10.13;2.90;;;;;;;;;;5069339;28;20192;-73
2021/12/04 17:32:40;;;;;;;8.17;2.70;;;;;;;;;;5068983;28;20635;-74
2021/12/04 17:35:05;;;;;;;4.87;2.33;;;;;;;;;;5069063;28;20219;-73